CheckWX is a tool to help pilots better visualize weather data.  It is not intended as a substitute for an official pre-flight weather briefing.

14:08:07 UTC

OISF METAR
Fasa Airport
Fasa, Iran
Current

1 hour ago

OISF 251300Z 01004KT CAVOK 36/M04 Q1007 A2976
Observed
Aug-25 @ 13:00 UTC
Wind
  • 010° at 4 KTS
Visibility
10,000+ meters
Flight Rules
VFR
Cloud Levels
  • Clear skies
Temperature
36°C / 97°F
Dewpoint
-4°C / 25°F
Humidity
7%
Altimeter
29.73" Hg
Pressure
1006.92 hPa
Previous

2 hours ago

OISF 251200Z 02008KT CAVOK 36/M06 Q1007 A2976
Observed
Aug-25 @ 12:00 UTC
Wind
  • 020° at 8 KTS
Visibility
10,000+ meters
Flight Rules
VFR
Cloud Levels
  • Clear skies
Temperature
36°C / 97°F
Dewpoint
-6°C / 21°F
Humidity
6%
Altimeter
29.73" Hg
Pressure
1006.92 hPa
Previous

3 hours ago

OISF 251100Z 01010KT CAVOK 36/M07 Q1008 A2977
Observed
Aug-25 @ 11:00 UTC
Wind
  • 010° at 10 KTS
Visibility
10,000+ meters
Flight Rules
VFR
Cloud Levels
  • Clear skies
Temperature
36°C / 97°F
Dewpoint
-7°C / 19°F
Humidity
6%
Altimeter
29.76" Hg
Pressure
1007.92 hPa